sensor_id;sensor_type;location;lat;lon;timestamp;P1;durP1;ratioP1;P2;durP2;ratioP2
46439;SDS011;32138;50.966;6.968;2023-05-07T00:00:22;7.40;;;4.68;;
46439;SDS011;32138;50.966;6.968;2023-05-07T00:01:24;6.00;;;4.00;;
46439;SDS011;32138;50.966;6.968;2023-05-07T00:02:26;5.30;;;3.85;;
46439;SDS011;32138;50.966;6.968;2023-05-07T00:03:26;5.45;;;3.38;;
46439;SDS011;32138;50.966;6.968;2023-05-07T00:04:27;5.68;;;3.75;;
46439;SDS011;32138;50.966;6.968;2023-05-07T00:05:28;5.88;;;3.88;;
46439;SDS011;32138;50.966;6.968;2023-05-07T00:06:29;6.97;;;3.63;;
46439;SDS011;32138;50.966;6.968;2023-05-07T00:07:32;5.40;;;3.40;;
46439;SDS011;32138;50.966;6.968;2023-05-07T00:08:33;5.20;;;3.83;;
46439;SDS011;32138;50.966;6.968;2023-05-07T00:09:33;7.03;;;3.80;;
46439;SDS011;32138;50.966;6.968;2023-05-07T00:10:36;6.93;;;3.75;;
46439;SDS011;32138;50.966;6.968;2023-05-07T00:11:37;7.65;;;3.65;;
46439;SDS011;32138;50.966;6.968;2023-05-07T00:12:38;5.95;;;3.58;;
46439;SDS011;32138;50.966;6.968;2023-05-07T00:13:38;6.30;;;3.72;;
46439;SDS011;32138;50.966;6.968;2023-05-07T00:14:39;4.65;;;3.67;;
46439;SDS011;32138;50.966;6.968;2023-05-07T00:15:40;4.22;;;3.03;;
46439;SDS011;32138;50.966;6.968;2023-05-07T00:16:41;4.18;;;3.15;;
46439;SDS011;32138;50.966;6.968;2023-05-07T00:17:42;6.05;;;3.70;;
46439;SDS011;32138;50.966;6.968;2023-05-07T00:18:43;6.93;;;3.90;;
46439;SDS011;32138;50.966;6.968;2023-05-07T00:19:45;6.22;;;3.45;;
46439;SDS011;32138;50.966;6.968;2023-05-07T00:20:46;7.15;;;3.28;;
46439;SDS011;32138;50.966;6.968;2023-05-07T00:21:47;3.20;;;2.90;;
46439;SDS011;32138;50.966;6.968;2023-05-07T00:22:48;6.63;;;3.60;;
46439;SDS011;32138;50.966;6.968;2023-05-07T00:23:48;4.38;;;3.20;;
46439;SDS011;32138;50.966;6.968;2023-05-07T00:24:49;5.00;;;3.78;;
46439;SDS011;32138;50.966;6.968;2023-05-07T00:25:50;7.72;;;4.05;;
46439;SDS011;32138;50.966;6.968;2023-05-07T00:26:51;5.43;;;3.33;;
46439;SDS011;32138;50.966;6.968;2023-05-07T00:27:52;6.10;;;3.53;;
46439;SDS011;32138;50.966;6.968;2023-05-07T00:28:53;5.78;;;3.28;;
46439;SDS011;32138;50.966;6.968;2023-05-07T00:29:54;4.95;;;3.75;;
46439;SDS011;32138;50.966;6.968;2023-05-07T00:30:55;5.28;;;3.60;;
46439;SDS011;32138;50.966;6.968;2023-05-07T00:31:56;6.35;;;4.20;;
46439;SDS011;32138;50.966;6.968;2023-05-07T00:32:56;4.45;;;3.63;;
46439;SDS011;32138;50.966;6.968;2023-05-07T00:33:57;6.57;;;3.85;;
46439;SDS011;32138;50.966;6.968;2023-05-07T00:34:58;3.80;;;2.88;;
46439;SDS011;32138;50.966;6.968;2023-05-07T00:35:58;4.85;;;3.42;;
46439;SDS011;32138;50.966;6.968;2023-05-07T00:37:01;5.03;;;3.33;;
46439;SDS011;32138;50.966;6.968;2023-05-07T00:38:02;3.95;;;3.30;;
46439;SDS011;32138;50.966;6.968;2023-05-07T00:39:03;5.47;;;3.60;;
46439;SDS011;32138;50.966;6.968;2023-05-07T00:40:04;5.93;;;3.78;;
46439;SDS011;32138;50.966;6.968;2023-05-07T00:41:07;4.80;;;3.85;;
46439;SDS011;32138;50.966;6.968;2023-05-07T00:42:08;5.25;;;3.60;;
46439;SDS011;32138;50.966;6.968;2023-05-07T00:43:09;5.85;;;3.42;;
46439;SDS011;32138;50.966;6.968;2023-05-07T00:44:09;6.38;;;3.70;;
46439;SDS011;32138;50.966;6.968;2023-05-07T00:45:10;4.30;;;2.90;;
46439;SDS011;32138;50.966;6.968;2023-05-07T00:46:11;6.68;;;3.88;;
46439;SDS011;32138;50.966;6.968;2023-05-07T00:47:13;4.43;;;3.55;;
46439;SDS011;32138;50.966;6.968;2023-05-07T00:48:15;3.40;;;2.88;;
46439;SDS011;32138;50.966;6.968;2023-05-07T00:49:16;6.85;;;3.47;;
46439;SDS011;32138;50.966;6.968;2023-05-07T00:50:18;5.60;;;3.47;;
46439;SDS011;32138;50.966;6.968;2023-05-07T00:51:19;4.80;;;3.20;;
46439;SDS011;32138;50.966;6.968;2023-05-07T00:52:20;6.10;;;3.00;;
46439;SDS011;32138;50.966;6.968;2023-05-07T00:53:24;6.53;;;3.72;;
46439;SDS011;32138;50.966;6.968;2023-05-07T00:54:25;8.25;;;3.25;;
46439;SDS011;32138;50.966;6.968;2023-05-07T00:55:26;5.55;;;3.30;;
46439;SDS011;32138;50.966;6.968;2023-05-07T00:56:27;7.57;;;3.70;;
46439;SDS011;32138;50.966;6.968;2023-05-07T00:57:28;5.97;;;3.08;;
46439;SDS011;32138;50.966;6.968;2023-05-07T00:58:29;4.63;;;2.83;;
46439;SDS011;32138;50.966;6.968;2023-05-07T00:59:31;6.45;;;3.20;;
46439;SDS011;32138;50.966;6.968;2023-05-07T01:00:33;5.63;;;3.33;;
46439;SDS011;32138;50.966;6.968;2023-05-07T01:01:34;3.72;;;3.00;;
46439;SDS011;32138;50.966;6.968;2023-05-07T01:02:36;3.50;;;3.00;;
46439;SDS011;32138;50.966;6.968;2023-05-07T01:03:38;5.38;;;3.25;;
46439;SDS011;32138;50.966;6.968;2023-05-07T01:04:39;4.13;;;3.08;;
46439;SDS011;32138;50.966;6.968;2023-05-07T01:05:40;5.15;;;2.80;;
46439;SDS011;32138;50.966;6.968;2023-05-07T01:06:42;6.05;;;2.85;;
46439;SDS011;32138;50.966;6.968;2023-05-07T01:07:44;5.63;;;2.60;;
46439;SDS011;32138;50.966;6.968;2023-05-07T01:08:46;4.45;;;3.17;;
46439;SDS011;32138;50.966;6.968;2023-05-07T01:09:52;3.72;;;2.88;;
46439;SDS011;32138;50.966;6.968;2023-05-07T01:10:54;3.88;;;2.30;;
46439;SDS011;32138;50.966;6.968;2023-05-07T01:11:56;5.97;;;2.58;;
46439;SDS011;32138;50.966;6.968;2023-05-07T01:12:58;5.88;;;2.80;;
46439;SDS011;32138;50.966;6.968;2023-05-07T01:14:00;4.35;;;2.67;;
46439;SDS011;32138;50.966;6.968;2023-05-07T01:15:01;6.03;;;2.60;;
46439;SDS011;32138;50.966;6.968;2023-05-07T01:16:04;4.97;;;2.60;;
46439;SDS011;32138;50.966;6.968;2023-05-07T01:17:05;5.38;;;2.53;;
46439;SDS011;32138;50.966;6.968;2023-05-07T01:18:06;4.43;;;2.22;;
46439;SDS011;32138;50.966;6.968;2023-05-07T01:19:08;6.60;;;2.78;;
46439;SDS011;32138;50.966;6.968;2023-05-07T01:20:11;5.82;;;2.80;;
46439;SDS011;32138;50.966;6.968;2023-05-07T01:21:12;4.95;;;2.50;;
46439;SDS011;32138;50.966;6.968;2023-05-07T01:22:16;3.85;;;2.38;;
46439;SDS011;32138;50.966;6.968;2023-05-07T01:23:39;3.25;;;2.30;;
46439;SDS011;32138;50.966;6.968;2023-05-07T01:24:40;6.35;;;2.58;;
46439;SDS011;32138;50.966;6.968;2023-05-07T01:25:42;5.20;;;2.75;;
46439;SDS011;32138;50.966;6.968;2023-05-07T01:26:43;3.08;;;2.08;;
46439;SDS011;32138;50.966;6.968;2023-05-07T01:27:44;4.47;;;2.40;;
46439;SDS011;32138;50.966;6.968;2023-05-07T01:28:45;3.83;;;2.63;;
46439;SDS011;32138;50.966;6.968;2023-05-07T01:29:46;6.65;;;2.58;;
46439;SDS011;32138;50.966;6.968;2023-05-07T01:30:49;4.85;;;2.80;;
46439;SDS011;32138;50.966;6.968;2023-05-07T01:31:53;5.80;;;2.80;;
46439;SDS011;32138;50.966;6.968;2023-05-07T01:34:11;5.70;;;2.28;;
46439;SDS011;32138;50.966;6.968;2023-05-07T01:35:22;5.32;;;2.33;;
46439;SDS011;32138;50.966;6.968;2023-05-07T01:36:29;2.67;;;2.17;;
46439;SDS011;32138;50.966;6.968;2023-05-07T01:37:30;4.32;;;2.40;;
46439;SDS011;32138;50.966;6.968;2023-05-07T01:38:31;5.03;;;2.53;;
46439;SDS011;32138;50.966;6.968;2023-05-07T01:39:32;4.00;;;3.15;;
46439;SDS011;32138;50.966;6.968;2023-05-07T01:40:33;4.45;;;2.10;;
46439;SDS011;32138;50.966;6.968;2023-05-07T01:41:34;3.05;;;2.45;;
46439;SDS011;32138;50.966;6.968;2023-05-07T01:42:35;4.78;;;2.60;;
46439;SDS011;32138;50.966;6.968;2023-05-07T01:43:36;5.57;;;2.75;;
46439;SDS011;32138;50.966;6.968;2023-05-07T01:44:37;4.75;;;2.50;;
46439;SDS011;32138;50.966;6.968;2023-05-07T01:45:38;4.05;;;2.10;;
46439;SDS011;32138;50.966;6.968;2023-05-07T01:46:40;4.53;;;2.80;;
46439;SDS011;32138;50.966;6.968;2023-05-07T01:47:41;7.00;;;2.95;;
46439;SDS011;32138;50.966;6.968;2023-05-07T01:48:42;5.30;;;2.78;;
46439;SDS011;32138;50.966;6.968;2023-05-07T01:49:45;4.57;;;2.90;;
46439;SDS011;32138;50.966;6.968;2023-05-07T01:50:47;4.75;;;2.67;;
46439;SDS011;32138;50.966;6.968;2023-05-07T01:51:48;3.58;;;2.70;;
46439;SDS011;32138;50.966;6.968;2023-05-07T01:52:50;4.13;;;2.20;;
46439;SDS011;32138;50.966;6.968;2023-05-07T01:53:52;4.78;;;3.10;;
46439;SDS011;32138;50.966;6.968;2023-05-07T01:54:53;3.78;;;2.70;;
46439;SDS011;32138;50.966;6.968;2023-05-07T01:55:54;4.53;;;2.78;;
46439;SDS011;32138;50.966;6.968;2023-05-07T01:56:56;3.42;;;2.28;;
46439;SDS011;32138;50.966;6.968;2023-05-07T01:57:57;6.30;;;2.60;;
46439;SDS011;32138;50.966;6.968;2023-05-07T01:58:58;5.45;;;2.50;;
46439;SDS011;32138;50.966;6.968;2023-05-07T01:59:58;4.28;;;2.47;;
46439;SDS011;32138;50.966;6.968;2023-05-07T02:00:59;4.95;;;2.60;;
46439;SDS011;32138;50.966;6.968;2023-05-07T02:02:00;3.75;;;2.65;;
46439;SDS011;32138;50.966;6.968;2023-05-07T02:03:01;4.28;;;2.50;;
46439;SDS011;32138;50.966;6.968;2023-05-07T02:04:02;4.57;;;2.28;;
46439;SDS011;32138;50.966;6.968;2023-05-07T02:05:02;4.10;;;2.80;;
46439;SDS011;32138;50.966;6.968;2023-05-07T02:06:04;10.02;;;2.65;;
46439;SDS011;32138;50.966;6.968;2023-05-07T02:07:05;4.20;;;2.50;;
46439;SDS011;32138;50.966;6.968;2023-05-07T02:08:06;4.95;;;2.28;;
46439;SDS011;32138;50.966;6.968;2023-05-07T02:09:06;6.38;;;2.95;;
46439;SDS011;32138;50.966;6.968;2023-05-07T02:10:09;3.80;;;2.47;;
46439;SDS011;32138;50.966;6.968;2023-05-07T02:11:10;4.68;;;2.47;;
46439;SDS011;32138;50.966;6.968;2023-05-07T02:12:10;6.10;;;2.58;;
46439;SDS011;32138;50.966;6.968;2023-05-07T02:13:11;4.80;;;2.75;;
46439;SDS011;32138;50.966;6.968;2023-05-07T02:14:12;3.63;;;2.15;;
46439;SDS011;32138;50.966;6.968;2023-05-07T02:15:12;4.93;;;2.63;;
46439;SDS011;32138;50.966;6.968;2023-05-07T02:16:13;5.80;;;3.10;;
46439;SDS011;32138;50.966;6.968;2023-05-07T02:17:14;3.70;;;2.97;;
46439;SDS011;32138;50.966;6.968;2023-05-07T02:18:15;4.50;;;2.75;;
46439;SDS011;32138;50.966;6.968;2023-05-07T02:19:17;3.95;;;2.65;;
46439;SDS011;32138;50.966;6.968;2023-05-07T02:20:18;4.57;;;2.50;;
46439;SDS011;32138;50.966;6.968;2023-05-07T02:21:18;4.13;;;2.38;;
46439;SDS011;32138;50.966;6.968;2023-05-07T02:22:19;3.70;;;2.60;;
46439;SDS011;32138;50.966;6.968;2023-05-07T02:23:20;6.18;;;2.92;;
46439;SDS011;32138;50.966;6.968;2023-05-07T02:24:21;6.07;;;3.05;;
46439;SDS011;32138;50.966;6.968;2023-05-07T02:25:21;3.35;;;2.75;;
46439;SDS011;32138;50.966;6.968;2023-05-07T02:26:22;3.88;;;2.75;;
46439;SDS011;32138;50.966;6.968;2023-05-07T02:27:23;6.13;;;3.67;;
46439;SDS011;32138;50.966;6.968;2023-05-07T02:28:24;8.18;;;3.67;;
46439;SDS011;32138;50.966;6.968;2023-05-07T02:29:25;4.35;;;2.90;;
46439;SDS011;32138;50.966;6.968;2023-05-07T02:30:25;5.65;;;2.70;;
46439;SDS011;32138;50.966;6.968;2023-05-07T02:31:26;3.70;;;2.80;;
46439;SDS011;32138;50.966;6.968;2023-05-07T02:32:27;3.65;;;2.60;;
46439;SDS011;32138;50.966;6.968;2023-05-07T02:33:28;3.75;;;2.88;;
46439;SDS011;32138;50.966;6.968;2023-05-07T02:34:28;5.05;;;3.40;;
46439;SDS011;32138;50.966;6.968;2023-05-07T02:35:29;5.38;;;3.10;;
46439;SDS011;32138;50.966;6.968;2023-05-07T02:36:30;3.78;;;2.85;;
46439;SDS011;32138;50.966;6.968;2023-05-07T02:37:31;6.20;;;3.17;;
46439;SDS011;32138;50.966;6.968;2023-05-07T02:38:31;6.85;;;3.65;;
46439;SDS011;32138;50.966;6.968;2023-05-07T02:39:32;4.45;;;2.70;;
46439;SDS011;32138;50.966;6.968;2023-05-07T02:40:33;4.38;;;3.22;;
46439;SDS011;32138;50.966;6.968;2023-05-07T02:41:34;6.07;;;3.15;;
46439;SDS011;32138;50.966;6.968;2023-05-07T02:42:34;5.82;;;2.88;;
46439;SDS011;32138;50.966;6.968;2023-05-07T02:43:35;5.80;;;2.95;;
46439;SDS011;32138;50.966;6.968;2023-05-07T02:44:36;5.00;;;2.88;;
46439;SDS011;32138;50.966;6.968;2023-05-07T02:45:37;4.30;;;2.88;;
46439;SDS011;32138;50.966;6.968;2023-05-07T02:46:38;3.85;;;2.47;;
46439;SDS011;32138;50.966;6.968;2023-05-07T02:47:38;3.42;;;2.60;;
46439;SDS011;32138;50.966;6.968;2023-05-07T02:48:39;3.88;;;2.78;;
46439;SDS011;32138;50.966;6.968;2023-05-07T02:49:40;3.58;;;2.33;;
46439;SDS011;32138;50.966;6.968;2023-05-07T02:50:41;6.60;;;3.20;;
46439;SDS011;32138;50.966;6.968;2023-05-07T02:51:41;8.73;;;2.50;;
46439;SDS011;32138;50.966;6.968;2023-05-07T02:52:42;5.00;;;2.80;;
46439;SDS011;32138;50.966;6.968;2023-05-07T02:53:43;5.13;;;2.95;;
46439;SDS011;32138;50.966;6.968;2023-05-07T02:54:44;2.92;;;2.20;;
46439;SDS011;32138;50.966;6.968;2023-05-07T02:55:44;5.10;;;2.55;;
46439;SDS011;32138;50.966;6.968;2023-05-07T02:56:45;3.60;;;2.63;;
46439;SDS011;32138;50.966;6.968;2023-05-07T02:57:46;5.30;;;2.83;;
46439;SDS011;32138;50.966;6.968;2023-05-07T02:58:47;6.53;;;3.00;;
46439;SDS011;32138;50.966;6.968;2023-05-07T02:59:47;4.10;;;2.70;;
46439;SDS011;32138;50.966;6.968;2023-05-07T03:00:48;5.97;;;2.75;;
46439;SDS011;32138;50.966;6.968;2023-05-07T03:01:49;5.22;;;2.60;;
46439;SDS011;32138;50.966;6.968;2023-05-07T03:02:49;4.88;;;2.55;;
46439;SDS011;32138;50.966;6.968;2023-05-07T03:03:50;4.22;;;2.72;;
46439;SDS011;32138;50.966;6.968;2023-05-07T03:04:51;2.88;;;2.58;;
46439;SDS011;32138;50.966;6.968;2023-05-07T03:05:52;4.82;;;2.95;;
46439;SDS011;32138;50.966;6.968;2023-05-07T03:06:53;6.07;;;3.08;;
46439;SDS011;32138;50.966;6.968;2023-05-07T03:07:53;3.40;;;2.58;;
46439;SDS011;32138;50.966;6.968;2023-05-07T03:08:54;2.38;;;1.88;;
46439;SDS011;32138;50.966;6.968;2023-05-07T03:09:55;5.27;;;2.57;;
46439;SDS011;32138;50.966;6.968;2023-05-07T03:10:56;3.47;;;2.78;;
46439;SDS011;32138;50.966;6.968;2023-05-07T03:11:57;3.72;;;2.47;;
46439;SDS011;32138;50.966;6.968;2023-05-07T03:12:57;4.20;;;2.42;;
46439;SDS011;32138;50.966;6.968;2023-05-07T03:13:58;5.00;;;2.67;;
46439;SDS011;32138;50.966;6.968;2023-05-07T03:14:59;4.53;;;2.50;;
46439;SDS011;32138;50.966;6.968;2023-05-07T03:16:00;4.43;;;2.17;;
46439;SDS011;32138;50.966;6.968;2023-05-07T03:17:00;3.60;;;2.70;;
46439;SDS011;32138;50.966;6.968;2023-05-07T03:18:01;3.83;;;2.75;;
46439;SDS011;32138;50.966;6.968;2023-05-07T03:19:02;4.53;;;2.83;;
46439;SDS011;32138;50.966;6.968;2023-05-07T03:20:03;4.95;;;2.60;;
46439;SDS011;32138;50.966;6.968;2023-05-07T03:21:04;5.40;;;2.30;;
46439;SDS011;32138;50.966;6.968;2023-05-07T03:22:05;4.72;;;2.40;;
46439;SDS011;32138;50.966;6.968;2023-05-07T03:23:05;6.15;;;2.58;;
46439;SDS011;32138;50.966;6.968;2023-05-07T03:24:06;5.07;;;2.10;;
46439;SDS011;32138;50.966;6.968;2023-05-07T03:25:08;4.47;;;2.00;;
46439;SDS011;32138;50.966;6.968;2023-05-07T03:26:10;4.97;;;2.63;;
46439;SDS011;32138;50.966;6.968;2023-05-07T03:27:10;3.65;;;2.33;;
46439;SDS011;32138;50.966;6.968;2023-05-07T03:28:11;4.32;;;2.60;;
46439;SDS011;32138;50.966;6.968;2023-05-07T03:29:12;5.75;;;2.00;;
46439;SDS011;32138;50.966;6.968;2023-05-07T03:30:13;4.25;;;2.58;;
46439;SDS011;32138;50.966;6.968;2023-05-07T03:31:13;4.53;;;2.75;;
46439;SDS011;32138;50.966;6.968;2023-05-07T03:32:14;5.03;;;2.45;;
46439;SDS011;32138;50.966;6.968;2023-05-07T03:33:15;5.95;;;2.50;;
46439;SDS011;32138;50.966;6.968;2023-05-07T03:34:16;3.92;;;2.38;;
46439;SDS011;32138;50.966;6.968;2023-05-07T03:36:22;3.00;;;2.35;;
46439;SDS011;32138;50.966;6.968;2023-05-07T03:37:24;4.65;;;2.50;;
46439;SDS011;32138;50.966;6.968;2023-05-07T03:38:24;6.35;;;2.70;;
46439;SDS011;32138;50.966;6.968;2023-05-07T03:39:25;2.95;;;2.13;;
46439;SDS011;32138;50.966;6.968;2023-05-07T03:40:26;5.68;;;2.75;;
46439;SDS011;32138;50.966;6.968;2023-05-07T03:41:27;5.00;;;2.67;;
46439;SDS011;32138;50.966;6.968;2023-05-07T03:42:29;4.30;;;2.55;;
46439;SDS011;32138;50.966;6.968;2023-05-07T03:43:30;4.53;;;3.00;;
46439;SDS011;32138;50.966;6.968;2023-05-07T03:44:31;4.85;;;2.45;;
46439;SDS011;32138;50.966;6.968;2023-05-07T03:45:31;5.72;;;2.45;;
46439;SDS011;32138;50.966;6.968;2023-05-07T03:46:33;5.15;;;2.40;;
46439;SDS011;32138;50.966;6.968;2023-05-07T03:47:34;2.63;;;1.92;;
46439;SDS011;32138;50.966;6.968;2023-05-07T03:48:35;4.70;;;3.15;;
46439;SDS011;32138;50.966;6.968;2023-05-07T03:49:36;4.95;;;2.40;;
46439;SDS011;32138;50.966;6.968;2023-05-07T03:50:37;5.90;;;2.58;;
46439;SDS011;32138;50.966;6.968;2023-05-07T03:51:38;8.93;;;2.95;;
46439;SDS011;32138;50.966;6.968;2023-05-07T03:52:38;4.53;;;2.40;;
46439;SDS011;32138;50.966;6.968;2023-05-07T03:53:39;7.70;;;2.33;;
46439;SDS011;32138;50.966;6.968;2023-05-07T03:54:40;4.10;;;2.63;;
46439;SDS011;32138;50.966;6.968;2023-05-07T03:55:41;10.23;;;2.50;;
46439;SDS011;32138;50.966;6.968;2023-05-07T03:56:41;4.13;;;2.33;;
46439;SDS011;32138;50.966;6.968;2023-05-07T03:57:42;3.58;;;2.17;;
46439;SDS011;32138;50.966;6.968;2023-05-07T03:58:43;6.90;;;2.80;;
46439;SDS011;32138;50.966;6.968;2023-05-07T03:59:44;3.28;;;2.35;;
46439;SDS011;32138;50.966;6.968;2023-05-07T04:00:44;6.13;;;2.65;;
46439;SDS011;32138;50.966;6.968;2023-05-07T04:01:45;6.65;;;2.60;;
46439;SDS011;32138;50.966;6.968;2023-05-07T04:02:46;4.30;;;2.30;;
46439;SDS011;32138;50.966;6.968;2023-05-07T04:03:47;4.20;;;2.42;;
46439;SDS011;32138;50.966;6.968;2023-05-07T04:04:48;4.95;;;2.42;;
46439;SDS011;32138;50.966;6.968;2023-05-07T04:05:49;4.10;;;2.47;;
46439;SDS011;32138;50.966;6.968;2023-05-07T04:06:50;4.55;;;2.50;;
46439;SDS011;32138;50.966;6.968;2023-05-07T04:07:51;3.75;;;2.28;;
46439;SDS011;32138;50.966;6.968;2023-05-07T04:08:52;4.22;;;2.28;;
46439;SDS011;32138;50.966;6.968;2023-05-07T04:09:52;4.65;;;2.88;;
46439;SDS011;32138;50.966;6.968;2023-05-07T04:10:57;4.75;;;2.60;;
46439;SDS011;32138;50.966;6.968;2023-05-07T04:11:58;3.58;;;2.40;;
46439;SDS011;32138;50.966;6.968;2023-05-07T04:12:59;3.30;;;2.38;;
46439;SDS011;32138;50.966;6.968;2023-05-07T04:14:00;3.75;;;2.30;;
46439;SDS011;32138;50.966;6.968;2023-05-07T04:15:01;2.35;;;2.00;;
46439;SDS011;32138;50.966;6.968;2023-05-07T04:16:02;6.43;;;3.65;;
46439;SDS011;32138;50.966;6.968;2023-05-07T04:17:05;3.15;;;2.05;;
46439;SDS011;32138;50.966;6.968;2023-05-07T04:18:07;3.75;;;2.65;;
46439;SDS011;32138;50.966;6.968;2023-05-07T04:19:07;3.60;;;2.15;;
46439;SDS011;32138;50.966;6.968;2023-05-07T04:20:08;5.00;;;2.40;;
46439;SDS011;32138;50.966;6.968;2023-05-07T04:21:17;5.13;;;2.40;;
46439;SDS011;32138;50.966;6.968;2023-05-07T04:22:19;4.97;;;2.67;;
46439;SDS011;32138;50.966;6.968;2023-05-07T04:23:20;5.40;;;2.42;;
46439;SDS011;32138;50.966;6.968;2023-05-07T04:24:21;4.00;;;2.28;;
46439;SDS011;32138;50.966;6.968;2023-05-07T04:25:21;2.97;;;2.00;;
46439;SDS011;32138;50.966;6.968;2023-05-07T04:26:26;5.95;;;2.38;;
46439;SDS011;32138;50.966;6.968;2023-05-07T04:27:28;4.50;;;2.67;;
46439;SDS011;32138;50.966;6.968;2023-05-07T04:28:29;5.15;;;2.22;;
46439;SDS011;32138;50.966;6.968;2023-05-07T04:29:30;4.03;;;2.20;;
46439;SDS011;32138;50.966;6.968;2023-05-07T04:30:31;5.03;;;2.40;;
46439;SDS011;32138;50.966;6.968;2023-05-07T04:31:31;3.10;;;2.30;;
46439;SDS011;32138;50.966;6.968;2023-05-07T04:32:32;5.70;;;2.55;;
46439;SDS011;32138;50.966;6.968;2023-05-07T04:33:33;5.25;;;1.92;;
46439;SDS011;32138;50.966;6.968;2023-05-07T04:34:34;4.82;;;2.63;;
46439;SDS011;32138;50.966;6.968;2023-05-07T04:35:35;4.88;;;2.50;;
46439;SDS011;32138;50.966;6.968;2023-05-07T04:36:36;5.85;;;3.15;;
46439;SDS011;32138;50.966;6.968;2023-05-07T04:37:39;3.58;;;2.42;;
46439;SDS011;32138;50.966;6.968;2023-05-07T04:38:40;4.07;;;2.17;;
46439;SDS011;32138;50.966;6.968;2023-05-07T04:39:44;5.13;;;2.78;;
46439;SDS011;32138;50.966;6.968;2023-05-07T04:40:45;5.03;;;3.00;;
46439;SDS011;32138;50.966;6.968;2023-05-07T04:41:46;4.72;;;2.30;;
46439;SDS011;32138;50.966;6.968;2023-05-07T04:42:47;3.58;;;2.65;;
46439;SDS011;32138;50.966;6.968;2023-05-07T04:43:48;4.18;;;2.58;;
46439;SDS011;32138;50.966;6.968;2023-05-07T04:44:52;3.60;;;2.70;;
46439;SDS011;32138;50.966;6.968;2023-05-07T04:45:53;3.75;;;2.67;;
46439;SDS011;32138;50.966;6.968;2023-05-07T04:46:54;3.78;;;2.22;;
46439;SDS011;32138;50.966;6.968;2023-05-07T04:47:55;5.20;;;3.08;;
46439;SDS011;32138;50.966;6.968;2023-05-07T04:48:56;8.07;;;2.35;;
46439;SDS011;32138;50.966;6.968;2023-05-07T04:49:57;5.55;;;2.47;;
46439;SDS011;32138;50.966;6.968;2023-05-07T04:50:58;4.43;;;2.53;;
46439;SDS011;32138;50.966;6.968;2023-05-07T04:51:59;5.10;;;2.55;;
46439;SDS011;32138;50.966;6.968;2023-05-07T04:53:00;3.22;;;2.03;;
46439;SDS011;32138;50.966;6.968;2023-05-07T04:54:01;4.90;;;2.20;;
46439;SDS011;32138;50.966;6.968;2023-05-07T04:55:01;5.78;;;2.63;;
46439;SDS011;32138;50.966;6.968;2023-05-07T04:56:03;4.00;;;2.35;;
46439;SDS011;32138;50.966;6.968;2023-05-07T04:57:04;5.30;;;2.25;;
46439;SDS011;32138;50.966;6.968;2023-05-07T04:58:05;4.82;;;2.35;;
46439;SDS011;32138;50.966;6.968;2023-05-07T04:59:07;3.38;;;2.30;;
46439;SDS011;32138;50.966;6.968;2023-05-07T05:00:08;4.55;;;2.28;;
46439;SDS011;32138;50.966;6.968;2023-05-07T05:01:09;4.93;;;2.33;;
46439;SDS011;32138;50.966;6.968;2023-05-07T05:02:10;5.70;;;2.35;;
46439;SDS011;32138;50.966;6.968;2023-05-07T05:03:11;2.83;;;2.22;;
46439;SDS011;32138;50.966;6.968;2023-05-07T05:04:12;3.80;;;2.08;;
46439;SDS011;32138;50.966;6.968;2023-05-07T05:05:13;5.15;;;2.20;;
46439;SDS011;32138;50.966;6.968;2023-05-07T05:06:13;3.10;;;1.85;;
46439;SDS011;32138;50.966;6.968;2023-05-07T05:07:14;3.25;;;1.88;;
46439;SDS011;32138;50.966;6.968;2023-05-07T05:08:15;6.65;;;1.80;;
46439;SDS011;32138;50.966;6.968;2023-05-07T05:09:17;3.95;;;2.33;;
46439;SDS011;32138;50.966;6.968;2023-05-07T05:10:17;2.90;;;1.90;;
46439;SDS011;32138;50.966;6.968;2023-05-07T05:11:18;3.20;;;2.28;;
46439;SDS011;32138;50.966;6.968;2023-05-07T05:12:19;4.05;;;1.85;;
46439;SDS011;32138;50.966;6.968;2023-05-07T05:13:20;2.97;;;1.92;;
46439;SDS011;32138;50.966;6.968;2023-05-07T05:14:21;2.72;;;2.13;;
46439;SDS011;32138;50.966;6.968;2023-05-07T05:15:21;2.88;;;1.95;;
46439;SDS011;32138;50.966;6.968;2023-05-07T05:16:22;8.13;;;2.58;;
46439;SDS011;32138;50.966;6.968;2023-05-07T05:17:23;3.75;;;2.08;;
46439;SDS011;32138;50.966;6.968;2023-05-07T05:18:24;4.85;;;3.00;;
46439;SDS011;32138;50.966;6.968;2023-05-07T05:19:24;3.78;;;2.13;;
46439;SDS011;32138;50.966;6.968;2023-05-07T05:20:25;6.20;;;2.65;;
46439;SDS011;32138;50.966;6.968;2023-05-07T05:21:26;2.85;;;2.38;;
46439;SDS011;32138;50.966;6.968;2023-05-07T05:22:27;4.20;;;2.38;;
46439;SDS011;32138;50.966;6.968;2023-05-07T05:23:29;3.42;;;2.25;;
46439;SDS011;32138;50.966;6.968;2023-05-07T05:24:30;4.32;;;2.17;;
46439;SDS011;32138;50.966;6.968;2023-05-07T05:25:31;3.20;;;2.20;;
46439;SDS011;32138;50.966;6.968;2023-05-07T05:26:32;3.83;;;2.67;;
46439;SDS011;32138;50.966;6.968;2023-05-07T05:27:33;5.30;;;2.08;;
46439;SDS011;32138;50.966;6.968;2023-05-07T05:28:35;5.28;;;2.40;;
46439;SDS011;32138;50.966;6.968;2023-05-07T05:29:36;3.10;;;1.98;;
46439;SDS011;32138;50.966;6.968;2023-05-07T05:30:36;4.80;;;2.28;;
46439;SDS011;32138;50.966;6.968;2023-05-07T05:31:37;3.63;;;2.30;;
46439;SDS011;32138;50.966;6.968;2023-05-07T05:32:38;4.15;;;2.53;;
46439;SDS011;32138;50.966;6.968;2023-05-07T05:33:39;3.50;;;2.22;;
46439;SDS011;32138;50.966;6.968;2023-05-07T05:34:40;4.63;;;2.22;;
46439;SDS011;32138;50.966;6.968;2023-05-07T05:35:40;3.92;;;2.13;;
46439;SDS011;32138;50.966;6.968;2023-05-07T05:36:42;6.22;;;2.67;;
46439;SDS011;32138;50.966;6.968;2023-05-07T05:37:43;4.43;;;2.08;;
46439;SDS011;32138;50.966;6.968;2023-05-07T05:38:44;3.50;;;2.10;;
46439;SDS011;32138;50.966;6.968;2023-05-07T05:39:45;2.50;;;1.88;;
46439;SDS011;32138;50.966;6.968;2023-05-07T05:40:46;3.20;;;2.30;;
46439;SDS011;32138;50.966;6.968;2023-05-07T05:41:47;3.85;;;2.33;;
46439;SDS011;32138;50.966;6.968;2023-05-07T05:42:47;6.88;;;2.83;;
46439;SDS011;32138;50.966;6.968;2023-05-07T05:43:48;3.95;;;2.28;;
46439;SDS011;32138;50.966;6.968;2023-05-07T05:44:49;5.47;;;1.92;;
46439;SDS011;32138;50.966;6.968;2023-05-07T05:45:50;4.47;;;2.58;;
46439;SDS011;32138;50.966;6.968;2023-05-07T05:46:51;2.15;;;1.80;;
46439;SDS011;32138;50.966;6.968;2023-05-07T05:47:52;4.90;;;2.00;;
46439;SDS011;32138;50.966;6.968;2023-05-07T05:48:52;2.67;;;1.85;;
46439;SDS011;32138;50.966;6.968;2023-05-07T05:49:53;6.05;;;2.25;;
46439;SDS011;32138;50.966;6.968;2023-05-07T05:50:54;3.50;;;2.30;;
46439;SDS011;32138;50.966;6.968;2023-05-07T05:51:55;3.80;;;2.25;;
46439;SDS011;32138;50.966;6.968;2023-05-07T05:52:55;4.85;;;2.47;;
46439;SDS011;32138;50.966;6.968;2023-05-07T05:53:57;3.42;;;2.28;;
46439;SDS011;32138;50.966;6.968;2023-05-07T05:54:58;4.00;;;2.20;;
46439;SDS011;32138;50.966;6.968;2023-05-07T05:55:59;4.10;;;1.83;;
46439;SDS011;32138;50.966;6.968;2023-05-07T05:56:59;5.00;;;2.30;;
46439;SDS011;32138;50.966;6.968;2023-05-07T05:58:00;4.80;;;2.20;;
46439;SDS011;32138;50.966;6.968;2023-05-07T05:59:01;3.67;;;2.38;;
46439;SDS011;32138;50.966;6.968;2023-05-07T06:00:02;2.35;;;1.90;;
46439;SDS011;32138;50.966;6.968;2023-05-07T06:01:04;3.67;;;2.03;;
46439;SDS011;32138;50.966;6.968;2023-05-07T06:02:05;5.30;;;2.10;;
46439;SDS011;32138;50.966;6.968;2023-05-07T06:03:07;3.97;;;2.55;;
46439;SDS011;32138;50.966;6.968;2023-05-07T06:04:07;3.92;;;1.90;;
46439;SDS011;32138;50.966;6.968;2023-05-07T06:05:08;5.30;;;2.40;;
46439;SDS011;32138;50.966;6.968;2023-05-07T06:06:09;5.28;;;2.30;;
46439;SDS011;32138;50.966;6.968;2023-05-07T06:07:10;3.38;;;1.83;;
46439;SDS011;32138;50.966;6.968;2023-05-07T06:08:11;5.45;;;2.15;;
46439;SDS011;32138;50.966;6.968;2023-05-07T06:09:12;4.07;;;1.83;;
46439;SDS011;32138;50.966;6.968;2023-05-07T06:10:12;4.30;;;1.60;;
46439;SDS011;32138;50.966;6.968;2023-05-07T06:11:13;3.55;;;2.00;;